Decoded Metar for UIBB (BRATSK in RUSSIA) (IATA:BTK) | Meteo·Mobile Aviation Weather
aviador You're here:

UIBB Decoded Metar

BRATSK in RUSSIA
Report Time2018-10-23 11:00:00
UTC Time2018-10-23 11:20:31
Flight Rules vfr VFR
Wind250° at 8 kt
W.Decomp.*RWY 30: 5.2 kt HW 6 kt LCW
W.Rank250° ranks 4
Current wind is above 250° avg. (7.3)
Visibility9999 m
Phenomena:N/A
Clouds:N/A
Expected CloudBase > 1,200 ft AGL from Temp-Dew spread
CeilingNone
Temp00°C (ISA -12)
Dew Point-3°C (80% RH)
AAT-5.3°C
QNH1011 hPa
Density Alt312 ft
Elevation1,608 ft
Report Wrong Elevation
Raw Report
METAR UIBB 231100Z 25004MPS 220V280 9999 NSC M00/M03 Q1011 R30/210160
NOSIG RMK QFE715/0954=

Extra information for UIBB:More info

Metar Taf Metar & Taf Last 4 Metars F.Rules Stats Wind Profile Meteogram Temp Stats Airport Information Weather charts Add Link Nearby VenuesMetar ALERT Operation Metar Decoded Social comments